createdAt,value
2022-09-07T00:02:08.615Z,5.47
2022-09-07T00:04:35.392Z,7.27
2022-09-07T00:07:02.207Z,5.80
2022-09-07T00:09:29.214Z,5.83
2022-09-07T00:11:55.914Z,6.50
2022-09-07T00:14:22.653Z,7.93
2022-09-07T00:16:50.264Z,8.70
2022-09-07T00:19:17.144Z,7.27
2022-09-07T00:21:44.001Z,8.00
2022-09-07T00:24:10.839Z,8.07
2022-09-07T00:26:37.939Z,7.57
2022-09-07T00:29:06.387Z,9.50
2022-09-07T00:31:33.263Z,6.80
2022-09-07T00:34:01.948Z,6.73
2022-09-07T00:36:29.626Z,6.27
2022-09-07T00:38:59.522Z,4.97
2022-09-07T00:41:26.235Z,6.63
2022-09-07T00:44:01.256Z,5.03
2022-09-07T00:46:32.076Z,4.43
2022-09-07T00:49:14.924Z,6.57
2022-09-07T00:51:53.176Z,6.30
2022-09-07T00:54:24.843Z,5.30
2022-09-07T00:56:53.769Z,6.50
2022-09-07T00:59:25.263Z,7.87
2022-09-07T01:01:52.607Z,5.20
2022-09-07T01:04:29.370Z,4.87
2022-09-07T01:06:57.193Z,6.10
2022-09-07T01:09:26.083Z,5.80
2022-09-07T01:12:01.099Z,4.67
2022-09-07T01:14:47.712Z,4.90
2022-09-07T01:17:50.147Z,4.50
2022-09-07T01:20:38.142Z,4.17
2022-09-07T01:23:28.284Z,5.17
2022-09-07T01:26:38.413Z,4.43
2022-09-07T01:29:38.284Z,4.03
2022-09-07T01:32:32.104Z,5.63
2022-09-07T01:35:03.241Z,3.80
2022-09-07T01:37:35.724Z,4.67
2022-09-07T01:40:17.132Z,5.17
2022-09-07T01:43:00.084Z,3.87
2022-09-07T01:45:32.106Z,2.83
2022-09-07T01:48:03.496Z,3.80
2022-09-07T01:50:42.945Z,5.13
2022-09-07T01:53:17.660Z,4.23
2022-09-07T01:55:49.854Z,5.17
2022-09-07T01:58:25.880Z,4.87
2022-09-07T02:01:07.723Z,4.83
2022-09-07T02:03:42.759Z,4.70
2022-09-07T02:06:38.961Z,3.60
2022-09-07T02:09:14.505Z,5.10
2022-09-07T02:11:47.471Z,4.67
2022-09-07T02:14:31.088Z,5.13
2022-09-07T02:17:03.904Z,4.10
2022-09-07T02:19:36.515Z,6.33
2022-09-07T02:22:08.713Z,4.07
2022-09-07T02:24:41.968Z,6.30
2022-09-07T02:27:18.380Z,4.30
2022-09-07T02:29:45.276Z,4.50
2022-09-07T02:32:12.051Z,5.77
2022-09-07T02:34:38.847Z,4.43
2022-09-07T02:37:09.056Z,2.60
2022-09-07T02:39:35.958Z,5.90
2022-09-07T02:42:02.800Z,4.67
2022-09-07T02:44:34.640Z,3.70
2022-09-07T02:47:07.616Z,4.00
2022-09-07T02:49:46.448Z,4.73
2022-09-07T02:52:31.120Z,4.07
2022-09-07T02:55:13.338Z,3.13
2022-09-07T02:58:01.599Z,6.77
2022-09-07T03:00:34.030Z,3.37
2022-09-07T03:03:08.446Z,5.43
2022-09-07T03:05:49.686Z,2.97
2022-09-07T03:08:27.301Z,3.53
2022-09-07T03:10:54.596Z,4.10
2022-09-07T03:13:29.625Z,3.33
2022-09-07T03:15:57.686Z,4.10
2022-09-07T03:18:26.013Z,2.07
2022-09-07T03:20:52.928Z,3.97
2022-09-07T03:23:20.005Z,2.63
2022-09-07T03:25:49.093Z,3.63
2022-09-07T03:28:16.282Z,5.87
2022-09-07T03:30:47.666Z,8.10
2022-09-07T03:33:15.928Z,5.17
2022-09-07T03:35:47.063Z,6.37
2022-09-07T03:38:13.899Z,4.43
2022-09-07T03:40:40.736Z,4.47
2022-09-07T03:43:08.587Z,3.90
2022-09-07T03:45:35.290Z,3.60
2022-09-07T03:48:02.177Z,4.67
2022-09-07T03:50:29.333Z,5.77
2022-09-07T03:52:56.071Z,7.10
2022-09-07T03:55:22.802Z,6.07
2022-09-07T03:57:49.580Z,7.40
2022-09-07T04:00:18.351Z,6.27
2022-09-07T04:02:45.194Z,5.97
2022-09-07T04:05:12.013Z,9.50
2022-09-07T04:07:38.841Z,6.47
2022-09-07T04:10:06.136Z,7.73
2022-09-07T04:12:32.836Z,7.83
2022-09-07T04:14:59.638Z,6.90
2022-09-07T04:17:26.405Z,6.93
2022-09-07T04:19:53.098Z,7.00
2022-09-07T04:22:20.003Z,10.00
2022-09-07T04:24:46.777Z,6.43
2022-09-07T04:27:13.485Z,10.13
2022-09-07T04:29:40.210Z,9.17
2022-09-07T04:32:15.052Z,9.40
2022-09-07T04:34:42.668Z,7.50
2022-09-07T04:37:09.372Z,5.37
2022-09-07T04:39:36.171Z,4.93
2022-09-07T04:42:03.299Z,7.87
2022-09-07T04:44:30.047Z,9.40
2022-09-07T04:46:56.792Z,8.03
2022-09-07T04:49:23.689Z,11.37
2022-09-07T04:51:50.385Z,10.10
2022-09-07T04:54:17.125Z,7.50
2022-09-07T04:56:43.868Z,8.63
2022-09-07T04:59:10.655Z,8.30
2022-09-07T05:01:37.558Z,8.70
2022-09-07T05:04:04.786Z,8.97
2022-09-07T05:06:31.747Z,9.80
2022-09-07T05:08:59.493Z,10.60
2022-09-07T05:11:29.389Z,13.10
2022-09-07T05:13:58.334Z,11.53
2022-09-07T05:16:27.067Z,9.80
2022-09-07T05:18:56.663Z,6.63
2022-09-07T05:21:26.048Z,10.47
2022-09-07T05:23:54.420Z,9.23
2022-09-07T05:26:22.890Z,11.70
2022-09-07T05:28:53.060Z,9.83
2022-09-07T05:31:23.783Z,10.93
2022-09-07T05:36:39.516Z,10.17
2022-09-07T05:39:07.424Z,13.20
2022-09-07T05:41:34.498Z,13.37
2022-09-07T05:46:52.985Z,13.53
2022-09-07T05:49:19.743Z,11.13
2022-09-07T05:51:47.003Z,11.30
2022-09-07T05:54:19.861Z,9.13
2022-09-07T05:56:46.778Z,12.77
2022-09-07T05:59:13.480Z,15.27
2022-09-07T06:01:42.325Z,14.10
2022-09-07T06:04:09.144Z,12.20
2022-09-07T06:06:38.978Z,11.57
2022-09-07T06:09:06.542Z,14.27
2022-09-07T06:11:33.482Z,12.57
2022-09-07T06:14:00.222Z,14.17
2022-09-07T06:16:27.118Z,12.87
2022-09-07T06:18:54.527Z,11.77
2022-09-07T06:21:23.390Z,13.90
2022-09-07T06:23:53.825Z,11.27
2022-09-07T06:26:26.626Z,13.80
2022-09-07T06:28:57.634Z,15.27
2022-09-07T06:31:25.783Z,15.93
2022-09-07T06:33:54.451Z,17.73
2022-09-07T06:36:28.529Z,15.87
2022-09-07T06:38:58.942Z,15.90
2022-09-07T06:44:16.482Z,22.20
2022-09-07T06:49:30.211Z,22.03
2022-09-07T06:51:57.219Z,22.77
2022-09-07T06:57:10.813Z,24.30
2022-09-07T06:59:38.298Z,21.73
2022-09-07T07:02:06.439Z,26.77
2022-09-07T07:04:39.450Z,25.20
2022-09-07T07:07:10.192Z,25.43
2022-09-07T07:09:41.039Z,29.90
2022-09-07T07:12:08.707Z,28.13
2022-09-07T07:14:38.475Z,25.27
2022-09-07T07:17:08.067Z,25.30
2022-09-07T07:19:34.848Z,29.47
2022-09-07T07:22:14.249Z,28.07
2022-09-07T07:24:45.387Z,27.87
2022-09-07T07:27:12.230Z,28.43
2022-09-07T07:29:42.051Z,30.90
2022-09-07T07:32:10.303Z,27.60
2022-09-07T07:34:37.069Z,26.50
2022-09-07T07:37:04.107Z,28.63
2022-09-07T07:42:18.409Z,29.97
2022-09-07T07:44:45.321Z,29.37
2022-09-07T07:47:12.089Z,26.60
2022-09-07T07:49:38.814Z,28.63
2022-09-07T07:54:53.721Z,32.03
2022-09-07T07:57:20.439Z,26.73
2022-09-07T07:59:47.139Z,30.17
2022-09-07T08:02:16.428Z,28.57
2022-09-07T08:04:43.508Z,29.20
2022-09-07T08:07:13.151Z,30.97
2022-09-07T08:09:51.169Z,31.67
2022-09-07T08:12:19.641Z,30.23
2022-09-07T08:14:49.226Z,27.27
2022-09-07T08:17:17.353Z,24.57
2022-09-07T08:19:47.178Z,24.63
2022-09-07T08:22:13.943Z,24.40
2022-09-07T08:24:40.697Z,25.40
2022-09-07T08:27:07.732Z,26.03
2022-09-07T08:29:35.585Z,25.53
2022-09-07T08:32:05.146Z,22.63
2022-09-07T08:34:32.133Z,24.47
2022-09-07T08:37:01.977Z,22.33
2022-09-07T08:39:28.716Z,25.33
2022-09-07T08:42:01.668Z,22.33
2022-09-07T08:45:11.765Z,21.60
2022-09-07T08:47:51.520Z,21.90
2022-09-07T08:50:28.670Z,20.93
2022-09-07T08:53:09.368Z,23.20
2022-09-07T08:55:40.395Z,21.10
2022-09-07T08:58:27.019Z,22.63
2022-09-07T09:06:45.782Z,16.10
2022-09-07T09:09:44.030Z,16.43
2022-09-07T09:12:29.167Z,16.50
2022-09-07T09:15:04.611Z,14.53
2022-09-07T09:17:47.038Z,14.07
2022-09-07T09:20:31.836Z,13.40
2022-09-07T09:23:06.761Z,12.65
2022-09-07T09:25:39.783Z,12.52
2022-09-07T09:28:08.371Z,11.82
2022-09-07T09:30:35.196Z,13.25
2022-09-07T09:33:26.002Z,11.13
2022-09-07T09:36:01.038Z,11.23
2022-09-07T09:38:34.313Z,10.63
2022-09-07T09:41:12.460Z,9.93
2022-09-07T09:43:52.004Z,9.70
2022-09-07T09:46:24.681Z,10.35
2022-09-07T09:48:59.573Z,8.63
2022-09-07T09:54:39.321Z,9.88
2022-09-07T09:57:06.145Z,9.93
2022-09-07T10:05:45.498Z,6.95
2022-09-07T10:08:22.360Z,10.40
2022-09-07T10:11:07.052Z,6.90
2022-09-07T10:13:51.964Z,9.13
2022-09-07T10:16:19.176Z,9.75
2022-09-07T10:18:58.467Z,5.90
2022-09-07T10:21:30.051Z,7.30
2022-09-07T10:24:06.051Z,8.20
2022-09-07T10:26:34.289Z,6.97
2022-09-07T10:29:24.781Z,7.15
2022-09-07T10:32:09.618Z,5.55
2022-09-07T10:34:43.302Z,9.40
2022-09-07T10:37:13.586Z,10.15
2022-09-07T10:40:01.875Z,5.93
2022-09-07T10:42:33.030Z,5.88
2022-09-07T10:45:19.273Z,8.90
2022-09-07T10:47:52.152Z,4.57
2022-09-07T10:50:39.635Z,8.82
2022-09-07T10:53:40.324Z,5.30
2022-09-07T10:56:25.860Z,5.90
2022-09-07T11:00:07.513Z,7.15
2022-09-07T11:02:42.083Z,6.30
2022-09-07T11:05:24.096Z,11.23
2022-09-07T11:08:16.545Z,8.05
2022-09-07T11:10:52.240Z,5.68
2022-09-07T11:13:24.129Z,5.43
2022-09-07T11:15:56.818Z,5.10
2022-09-07T11:18:49.825Z,8.75
2022-09-07T11:24:17.569Z,5.95
2022-09-07T11:27:02.535Z,5.20
2022-09-07T11:30:01.485Z,5.68
2022-09-07T11:32:37.384Z,5.80
2022-09-07T11:35:24.921Z,4.85
2022-09-07T11:37:59.568Z,6.57
2022-09-07T11:40:42.071Z,6.95
2022-09-07T11:43:25.133Z,4.60
2022-09-07T11:45:56.628Z,6.72
2022-09-07T11:48:48.400Z,4.28
2022-09-07T11:51:19.750Z,7.25
2022-09-07T11:53:54.356Z,6.95
2022-09-07T11:56:28.314Z,5.00
2022-09-07T11:59:15.036Z,4.28
2022-09-07T12:01:44.952Z,6.95
2022-09-07T12:04:35.788Z,3.75
2022-09-07T12:07:26.328Z,7.47
2022-09-07T12:10:14.573Z,3.65
2022-09-07T12:13:05.722Z,4.90
2022-09-07T12:15:43.194Z,4.35
2022-09-07T12:18:24.971Z,5.90
2022-09-07T12:20:52.098Z,7.38
2022-09-07T12:23:32.318Z,6.30
2022-09-07T12:26:32.717Z,5.32
2022-09-07T12:28:59.371Z,8.32
2022-09-07T12:31:57.654Z,5.20
2022-09-07T12:34:33.954Z,2.47
2022-09-07T12:37:12.557Z,4.32
2022-09-07T12:39:43.873Z,3.85
2022-09-07T12:42:34.348Z,5.72
2022-09-07T12:45:28.645Z,3.92
2022-09-07T12:48:10.076Z,6.95
2022-09-07T12:50:44.198Z,5.97
2022-09-07T12:53:13.713Z,3.03
2022-09-07T12:58:58.446Z,5.20
2022-09-07T13:01:55.986Z,4.22
2022-09-07T13:04:28.993Z,4.43
2022-09-07T13:07:24.098Z,3.63
2022-09-07T13:09:58.885Z,3.63
2022-09-07T13:15:33.653Z,3.35
2022-09-07T13:18:00.752Z,7.10
2022-09-07T13:20:33.879Z,4.30
2022-09-07T13:23:25.432Z,4.15
2022-09-07T13:25:54.965Z,5.35
2022-09-07T13:28:52.696Z,7.75
2022-09-07T13:32:12.658Z,2.90
2022-09-07T13:34:49.335Z,5.05
2022-09-07T13:37:24.512Z,4.20
2022-09-07T13:39:54.749Z,4.00
2022-09-07T13:42:28.765Z,6.03
2022-09-07T13:45:02.220Z,4.85
2022-09-07T13:47:48.579Z,2.03
2022-09-07T13:50:24.063Z,4.90
2022-09-07T13:53:19.617Z,3.58
2022-09-07T13:55:53.313Z,4.63
2022-09-07T13:58:28.507Z,2.35
2022-09-07T14:00:59.666Z,4.40
2022-09-07T14:03:30.178Z,5.18
2022-09-07T14:06:16.973Z,2.95
2022-09-07T14:08:57.493Z,4.10
2022-09-07T14:11:41.185Z,4.75
2022-09-07T14:14:13.967Z,4.70
2022-09-07T14:16:46.734Z,3.33
2022-09-07T14:19:26.075Z,3.42
2022-09-07T14:21:59.145Z,5.85
2022-09-07T14:24:34.332Z,5.47
2022-09-07T14:27:01.420Z,3.67
2022-09-07T14:29:33.683Z,2.95
2022-09-07T14:32:02.993Z,3.05
2022-09-07T14:34:38.532Z,3.97
2022-09-07T14:37:08.494Z,3.53
2022-09-07T14:39:42.120Z,1.98
2022-09-07T14:42:12.305Z,2.83
2022-09-07T14:44:43.364Z,4.03
2022-09-07T14:47:29.737Z,2.55
2022-09-07T14:50:06.218Z,2.17
2022-09-07T14:52:43.588Z,2.67
2022-09-07T14:55:36.996Z,2.80
2022-09-07T14:58:15.696Z,3.55
2022-09-07T15:01:37.168Z,1.92
2022-09-07T15:03:40.828Z,4.13
2022-09-07T15:07:00.482Z,2.40
2022-09-07T15:08:56.588Z,2.90
2022-09-07T15:11:36.173Z,3.55
2022-09-07T15:14:20.358Z,4.82
2022-09-07T15:19:47.115Z,2.85
2022-09-07T15:22:14.175Z,4.30
2022-09-07T15:24:40.850Z,3.78
2022-09-07T15:27:24.334Z,3.90
2022-09-07T15:29:51.172Z,2.15
2022-09-07T15:32:18.722Z,4.40
2022-09-07T15:34:45.744Z,3.45
2022-09-07T15:39:59.803Z,3.78
2022-09-07T15:45:14.782Z,3.70
2022-09-07T15:47:47.171Z,4.22
2022-09-07T15:50:16.771Z,3.45
2022-09-07T15:52:46.287Z,3.05
2022-09-07T15:55:18.046Z,4.43
2022-09-07T15:57:49.202Z,5.07
2022-09-07T16:00:16.602Z,3.38
2022-09-07T16:05:31.454Z,4.40
2022-09-07T16:10:55.608Z,2.97
2022-09-07T16:13:24.334Z,5.18
2022-09-07T16:15:51.942Z,3.70
2022-09-07T16:18:19.254Z,2.38
2022-09-07T16:20:47.312Z,1.95
2022-09-07T16:23:16.945Z,3.58
2022-09-07T16:25:56.887Z,4.15
2022-09-07T16:28:23.793Z,4.55
2022-09-07T16:30:50.634Z,7.50
2022-09-07T16:33:17.462Z,4.28
2022-09-07T16:35:44.273Z,4.93
2022-09-07T16:40:59.135Z,3.53
2022-09-07T16:43:26.184Z,2.75
2022-09-07T16:46:07.651Z,2.85
2022-09-07T16:48:36.249Z,3.35
2022-09-07T16:51:05.061Z,3.25
2022-09-07T16:53:34.364Z,3.67
2022-09-07T16:56:10.094Z,5.40
2022-09-07T16:58:43.203Z,5.07
2022-09-07T17:01:12.708Z,4.65
2022-09-07T17:03:40.297Z,2.53
2022-09-07T17:06:10.184Z,2.08
2022-09-07T17:08:38.170Z,3.25
2022-09-07T17:11:09.977Z,3.55
2022-09-07T17:13:40.116Z,2.97
2022-09-07T17:16:10.109Z,5.00
2022-09-07T17:21:24.677Z,3.08
2022-09-07T17:23:55.509Z,2.10
2022-09-07T17:26:27.150Z,3.33
2022-09-07T17:28:59.770Z,4.53
2022-09-07T17:34:17.562Z,5.47
2022-09-07T17:36:44.491Z,4.68
2022-09-07T17:39:16.184Z,4.07
2022-09-07T17:41:44.187Z,3.00
2022-09-07T17:44:11.326Z,2.15
2022-09-07T17:46:38.085Z,3.42
2022-09-07T17:49:07.090Z,4.93
2022-09-07T17:51:36.107Z,5.20
2022-09-07T17:54:09.561Z,7.53
2022-09-07T17:56:40.990Z,7.05
2022-09-07T18:01:56.392Z,4.60
2022-09-07T18:04:24.044Z,4.90
2022-09-07T18:06:54.016Z,4.95
2022-09-07T18:09:20.905Z,3.58
2022-09-07T18:11:49.019Z,1.92
2022-09-07T18:14:16.750Z,4.95
2022-09-07T18:16:46.074Z,5.28
2022-09-07T18:19:17.845Z,2.88
2022-09-07T18:21:45.029Z,2.85
2022-09-07T18:24:16.923Z,4.60
2022-09-07T18:26:50.194Z,3.17
2022-09-07T18:29:28.899Z,3.60
2022-09-07T18:31:57.139Z,3.80
2022-09-07T18:34:29.397Z,4.57
2022-09-07T18:36:58.564Z,8.70
2022-09-07T18:39:28.869Z,6.83
2022-09-07T18:41:55.690Z,3.08
2022-09-07T18:47:21.099Z,4.13
2022-09-07T18:49:50.042Z,4.17
2022-09-07T18:55:08.686Z,4.90
2022-09-07T18:57:36.479Z,5.43
2022-09-07T19:00:05.699Z,5.80
2022-09-07T19:02:33.549Z,3.43
2022-09-07T19:07:47.163Z,4.23
2022-09-07T19:10:17.050Z,3.23
2022-09-07T19:12:45.918Z,3.97
2022-09-07T19:15:13.488Z,4.90
2022-09-07T19:17:40.433Z,7.93
2022-09-07T19:20:07.798Z,5.53
2022-09-07T19:22:34.679Z,5.57
2022-09-07T19:25:01.527Z,4.37
2022-09-07T19:27:28.487Z,3.73
2022-09-07T19:29:55.242Z,5.93
2022-09-07T19:32:22.089Z,7.83
2022-09-07T19:34:54.373Z,6.50
2022-09-07T19:37:25.387Z,4.33
2022-09-07T19:39:55.095Z,6.37
2022-09-07T19:42:22.563Z,3.83
2022-09-07T19:44:49.776Z,5.57
2022-09-07T19:47:16.627Z,4.93
2022-09-07T19:49:43.409Z,4.93
2022-09-07T19:52:10.423Z,5.50
2022-09-07T19:54:37.273Z,5.87
2022-09-07T19:57:05.172Z,5.27
2022-09-07T19:59:32.064Z,6.20
2022-09-07T20:01:58.795Z,8.00
2022-09-07T20:04:25.654Z,4.33
2022-09-07T20:06:52.487Z,6.73
2022-09-07T20:09:20.531Z,4.43
2022-09-07T20:11:47.948Z,5.47
2022-09-07T20:14:16.612Z,5.17
2022-09-07T20:16:44.124Z,3.67
2022-09-07T20:19:14.470Z,5.30
2022-09-07T20:21:41.567Z,6.53
2022-09-07T20:24:12.213Z,4.13
2022-09-07T20:26:39.037Z,4.27
2022-09-07T20:29:26.127Z,4.23
2022-09-07T20:31:53.691Z,3.03
2022-09-07T20:34:20.741Z,7.17
2022-09-07T20:36:49.730Z,4.17
2022-09-07T20:39:17.173Z,5.23
2022-09-07T20:41:44.510Z,6.33
2022-09-07T20:44:11.569Z,4.47
2022-09-07T20:46:38.766Z,3.90
2022-09-07T20:49:05.846Z,3.77
2022-09-07T20:51:35.223Z,5.33
2022-09-07T20:54:02.091Z,2.80
2022-09-07T20:56:31.151Z,5.77
2022-09-07T20:59:00.298Z,6.73
2022-09-07T21:01:28.349Z,3.90
2022-09-07T21:04:00.264Z,8.73
2022-09-07T21:06:28.569Z,4.43
2022-09-07T21:08:56.321Z,6.07
2022-09-07T21:11:49.388Z,4.53
2022-09-07T21:14:19.242Z,4.63
2022-09-07T21:16:45.956Z,4.30
2022-09-07T21:19:12.936Z,3.93
2022-09-07T21:21:41.932Z,4.80
2022-09-07T21:24:17.823Z,5.53
2022-09-07T21:26:44.947Z,4.70
2022-09-07T21:29:23.310Z,4.33
2022-09-07T21:31:52.237Z,3.73
2022-09-07T21:34:19.052Z,4.87
2022-09-07T21:36:46.205Z,7.63
2022-09-07T21:39:14.873Z,6.60
2022-09-07T21:41:43.367Z,3.97
2022-09-07T21:44:13.069Z,3.93
2022-09-07T21:46:40.297Z,8.20
2022-09-07T21:49:07.052Z,4.73
2022-09-07T21:51:33.824Z,3.40
2022-09-07T21:54:01.484Z,5.10
2022-09-07T21:56:30.249Z,5.43
2022-09-07T21:58:59.126Z,7.50
2022-09-07T22:01:28.058Z,7.03
2022-09-07T22:03:57.525Z,4.03
2022-09-07T22:06:25.269Z,6.63
2022-09-07T22:08:52.025Z,5.30
2022-09-07T22:11:20.850Z,5.40
2022-09-07T22:13:47.973Z,3.23
2022-09-07T22:16:15.465Z,5.27
2022-09-07T22:18:46.208Z,5.80
2022-09-07T22:21:15.818Z,7.07
2022-09-07T22:23:48.331Z,5.23
2022-09-07T22:26:18.055Z,3.90
2022-09-07T22:28:44.810Z,9.43
2022-09-07T22:31:17.670Z,7.83
2022-09-07T22:33:46.500Z,10.00
2022-09-07T22:36:22.523Z,4.40
2022-09-07T22:38:52.395Z,7.97
2022-09-07T22:41:21.550Z,6.20
2022-09-07T22:43:51.036Z,7.20
2022-09-07T22:46:20.914Z,8.13
2022-09-07T22:48:48.035Z,11.33
2022-09-07T22:51:15.781Z,7.53
2022-09-07T22:53:44.300Z,7.47
2022-09-07T22:56:18.493Z,4.40
2022-09-07T22:58:47.261Z,9.73
2022-09-07T23:01:14.445Z,7.67
2022-09-07T23:03:41.757Z,6.27
2022-09-07T23:06:08.926Z,7.87
2022-09-07T23:08:35.622Z,11.30
2022-09-07T23:11:05.169Z,9.33
2022-09-07T23:13:33.862Z,7.70
2022-09-07T23:16:06.206Z,5.17
2022-09-07T23:18:34.140Z,9.30
2022-09-07T23:21:01.852Z,9.77
2022-09-07T23:23:34.411Z,8.93
2022-09-07T23:26:02.901Z,8.77
2022-09-07T23:28:31.247Z,8.53
2022-09-07T23:30:59.000Z,9.07
2022-09-07T23:33:26.430Z,6.97
2022-09-07T23:36:01.533Z,5.60
2022-09-07T23:38:29.201Z,9.93
2022-09-07T23:40:57.422Z,7.63
2022-09-07T23:43:27.185Z,8.40
2022-09-07T23:45:54.958Z,6.47
2022-09-07T23:48:22.832Z,6.03
2022-09-07T23:50:49.905Z,8.13
2022-09-07T23:53:18.040Z,7.43
2022-09-07T23:55:46.546Z,6.63
2022-09-07T23:58:13.219Z,5.47
